Leota, Minnesota
Current Conditions -  °F | °C
As of 1:16 AM on Thursday 18 Dec 2014 (Local Time) from KDVP Reporting Station
Clear Clear  
Wind Chill:   Ceiling: Unl
Heat Index:   Visibility: 10mi
Dew Point:   Wind: 0mph
Humidity: 92%   Direction: NA
Pressure: 30.27"   Gusts: NA
Location:  43.83°N, 96.01°W
Report Text: KDVP 180716Z AUTO 00000KT 10SM CLR M14/M15 A3027 RMK AO2 T11421152
Loading
Personal Weather Stations






























Interactive Weather Map New forecast layout! Learn more

10-Day Weather Forecast

Advertisements
Track Severe Weather on mobile